Главная страница
METAR-TAF:

METAR-TAF

Аэропорты :

Cerklje ob Krki, Словения

широта: 45-53-59N, долгота: 15-30-55E, высота над уровнем моря: 157 м

Текущие метеонаблюдения

Эта сводка был подготовлена 29 минут назад, в 19:30 UTC
Ветер 4 Узел от юго-западный
Температура 21°C
Влажность 83%
Давление 1012 hPa
Видимость 10 км и более
Нет облачности ниже 1500 м, и нет кучево-дождевой облачности

METAR: LJCE 181930Z 22004KT CAVOK 21/18 Q1012

Время: 21:59 (19:59 UTC)

Прогноз

Эта сводка был подготовлена 2 часа и 59 минут назад, в 17:00 UTC
Прогноз действительный с 18-го 18 UTC до 19-го 03 UTC
Ветер 4 Узел от западный
Видимость 10 км и более
Нет облачности ниже 1500 м, и нет кучево-дождевой облачности

TAF: LJCE 181700Z 1818/1903 27004KT CAVOK

Метеонаблюдения и прогнозы для более 4000 аэропортов (сводки METAR и TAF).

Имеющиеся станции представлены на карте желтыми и красными точками.

Чтобы увидеть название станции, наведите на нее мышь.

Затем щелкните, чтобы увидеть метеонаблюдения и метеопрогнозы.

Управление картой: чтобы увеличить масштаб, щелкните зеленые кнопки с черным крестиком; чтобы уменьшить масштаб, щелкните зеленую кнопку с тире; для просмотра соседних карт щелкайте зеленые стрелки.


METAR-TAF: